createdAt,value
2018-06-05T05:25:24.940Z,100865.81
2018-06-05T05:27:52.536Z,100864.57
2018-06-05T05:30:19.929Z,100864.56
2018-06-05T05:32:47.423Z,100867.77
2018-06-05T05:35:14.901Z,100865.78
2018-06-05T05:37:42.395Z,100868.36
2018-06-05T05:40:10.543Z,100872.75
2018-06-05T05:42:38.304Z,100873.90
2018-06-05T05:45:05.504Z,100877.95
2018-06-05T05:47:33.005Z,100882.23
2018-06-05T05:50:00.499Z,100883.30
2018-06-05T05:52:28.416Z,100883.56
2018-06-05T05:54:55.662Z,100886.12
2018-06-05T05:57:23.870Z,100888.65
2018-06-05T05:59:51.563Z,100888.47
2018-06-05T06:02:18.850Z,100889.22
2018-06-05T06:04:46.340Z,100883.04
2018-06-05T06:07:13.836Z,100885.73
2018-06-05T06:09:41.331Z,100889.52
2018-06-05T06:12:08.816Z,100892.56
2018-06-05T06:14:36.725Z,100894.27
2018-06-05T06:17:04.038Z,100896.20
2018-06-05T06:19:31.299Z,100891.95
2018-06-05T06:21:58.793Z,100893.91
2018-06-05T06:24:26.292Z,100898.88
2018-06-05T06:26:53.805Z,100903.26
2018-06-05T06:29:21.278Z,100894.20
2018-06-05T06:31:48.864Z,100902.59
2018-06-05T06:34:16.482Z,100906.97
2018-06-05T06:36:43.809Z,100915.00
2018-06-05T06:39:11.441Z,100913.39
2018-06-05T06:41:38.880Z,100926.45
2018-06-05T06:44:06.663Z,100916.64
2018-06-05T06:46:35.050Z,100922.33
2018-06-05T06:49:01.329Z,100927.30
2018-06-05T06:51:28.789Z,100932.25
2018-06-05T06:53:56.637Z,100937.56
2018-06-05T06:56:23.949Z,100949.66
2018-06-05T06:58:51.591Z,100945.08
2018-06-05T07:01:18.974Z,100947.48
2018-06-05T07:03:46.238Z,100956.88
2018-06-05T07:06:13.732Z,100955.42
2018-06-05T07:08:41.829Z,100959.78
2018-06-05T07:11:08.707Z,100967.46
2018-06-05T07:13:37.209Z,100964.66
2018-06-05T07:16:03.730Z,100971.52
2018-06-05T07:18:32.428Z,100982.36
2018-06-05T07:20:58.676Z,100987.98
2018-06-05T07:23:26.611Z,100988.61
2018-06-05T07:25:53.654Z,100993.36
2018-06-05T07:28:21.141Z,100991.23
2018-06-05T07:30:49.143Z,100992.89
2018-06-05T07:33:16.124Z,100993.56
2018-06-05T07:35:43.617Z,101001.36
2018-06-05T07:38:11.103Z,101002.72
2018-06-05T07:40:38.595Z,101004.78
2018-06-05T07:43:06.085Z,101009.34
2018-06-05T07:45:34.477Z,101010.20
2018-06-05T07:48:01.068Z,101016.58
2018-06-05T07:50:28.570Z,101017.59
2018-06-05T07:52:56.876Z,101021.53
2018-06-05T07:55:23.734Z,101024.63
2018-06-05T07:57:52.236Z,101018.52
2018-06-05T08:00:18.543Z,101022.45
2018-06-05T08:02:47.069Z,101024.83
2018-06-05T08:05:14.347Z,101025.66
2018-06-05T08:07:41.133Z,101031.71
2018-06-05T08:10:09.348Z,101020.34
2018-06-05T08:12:36.829Z,101030.88
2018-06-05T08:15:03.649Z,101031.23
2018-06-05T08:17:31.129Z,101034.70
2018-06-05T08:19:58.600Z,101033.33
2018-06-05T08:22:27.166Z,101030.86
2018-06-05T08:24:53.584Z,101038.88
2018-06-05T08:27:21.179Z,101036.38
2018-06-05T08:29:48.563Z,101032.71
2018-06-05T08:32:16.111Z,101026.33
2018-06-05T08:34:43.592Z,101030.76
2018-06-05T08:37:11.090Z,101032.94
2018-06-05T08:39:38.665Z,101032.64
2018-06-05T08:42:06.064Z,101038.83
2018-06-05T08:44:33.556Z,101048.43
2018-06-05T08:47:01.597Z,101053.81
2018-06-05T08:49:28.535Z,101056.42
2018-06-05T08:51:56.034Z,101070.28
2018-06-05T08:54:24.750Z,101070.75
2018-06-05T08:56:51.036Z,101076.20
2018-06-05T08:59:18.527Z,101079.79
2018-06-05T09:01:46.017Z,101077.95
2018-06-05T09:04:13.507Z,101079.19
2018-06-05T09:06:41.428Z,101087.76
2018-06-05T09:09:08.492Z,101100.12
2018-06-05T09:11:36.043Z,101088.55
2018-06-05T09:14:03.517Z,101101.25
2018-06-05T09:16:31.065Z,101099.19
2018-06-05T09:18:58.567Z,101103.38
2018-06-05T09:21:27.249Z,101099.60
2018-06-05T09:23:53.857Z,101107.41
2018-06-05T09:26:21.015Z,101103.76
2018-06-05T09:28:48.661Z,101115.34
2018-06-05T09:31:16.004Z,101120.31
2018-06-05T09:33:43.549Z,101113.77
2018-06-05T09:36:11.072Z,101114.27
2018-06-05T09:38:38.649Z,101102.88
2018-06-05T09:41:06.656Z,101106.45
2018-06-05T09:43:34.350Z,101113.63
2018-06-05T09:46:01.620Z,101115.64
2018-06-05T09:48:29.117Z,101111.16
2018-06-05T09:50:56.624Z,101126.84
2018-06-05T09:53:24.405Z,101127.19
2018-06-05T09:55:51.988Z,101123.69
2018-06-05T09:58:19.291Z,101136.09
2018-06-05T10:00:46.888Z,101142.17
2018-06-05T10:03:14.074Z,101132.13
2018-06-05T10:05:41.542Z,101143.69
2018-06-05T10:08:09.046Z,101160.16
2018-06-05T10:10:36.521Z,101153.75
2018-06-05T10:13:03.991Z,101159.38
2018-06-05T10:15:31.411Z,101161.41
2018-06-05T10:17:59.337Z,101170.41
2018-06-05T10:20:26.405Z,101155.80
2018-06-05T10:22:53.754Z,101169.23
2018-06-05T10:25:21.238Z,101170.84
2018-06-05T10:27:49.180Z,101170.52
2018-06-05T10:30:16.137Z,101177.52
2018-06-05T10:32:43.589Z,101181.22
2018-06-05T10:35:11.024Z,101191.44
2018-06-05T10:37:38.469Z,101193.80
2018-06-05T10:40:05.952Z,101189.47
2018-06-05T10:42:33.361Z,101191.16
2018-06-05T10:45:00.782Z,101202.80
2018-06-05T10:47:28.261Z,101193.85
2018-06-05T10:49:55.732Z,101206.01
2018-06-05T10:52:23.153Z,101207.62
2018-06-05T10:54:50.628Z,101199.18
2018-06-05T10:57:18.146Z,101215.88
2018-06-05T10:59:45.565Z,101207.20
2018-06-05T11:02:13.044Z,101214.30
2018-06-05T11:04:40.489Z,101218.59
2018-06-05T11:07:08.122Z,101228.94
2018-06-05T11:09:35.567Z,101240.09
2018-06-05T11:12:03.014Z,101236.72
2018-06-05T11:14:30.476Z,101230.56
2018-06-05T11:16:58.225Z,101234.84
2018-06-05T11:19:25.667Z,101237.05
2018-06-05T11:21:53.121Z,101241.38
2018-06-05T11:24:20.545Z,101238.63
2018-06-05T11:26:48.021Z,101233.84
2018-06-05T11:29:15.446Z,101238.73
2018-06-05T11:31:42.920Z,101238.06
2018-06-05T11:34:10.371Z,101247.52
2018-06-05T11:36:37.802Z,101237.48
2018-06-05T11:39:05.276Z,101236.34
2018-06-05T11:41:32.741Z,101228.78
2018-06-05T11:44:00.187Z,101240.26
2018-06-05T11:46:27.647Z,101241.00
2018-06-05T11:48:55.733Z,101241.56
2018-06-05T11:51:23.004Z,101259.00
2018-06-05T11:53:50.449Z,101248.78
2018-06-05T11:56:17.930Z,101248.62
2018-06-05T11:58:45.348Z,101256.20
2018-06-05T12:01:12.793Z,101260.54
2018-06-05T12:03:40.272Z,101270.66
2018-06-05T12:08:42.632Z,101263.42
2018-06-05T12:11:20.394Z,101272.05
2018-06-05T12:13:48.876Z,101282.22
2018-06-05T12:16:16.089Z,101276.77
2018-06-05T12:18:55.046Z,101282.77
2018-06-05T12:21:36.406Z,101281.65
2018-06-05T12:26:58.513Z,101294.05
2018-06-05T12:29:25.557Z,101299.80
2018-06-05T12:31:53.002Z,101295.27
2018-06-05T12:34:20.448Z,101291.00
2018-06-05T12:36:47.950Z,101296.62
2018-06-05T12:39:15.388Z,101306.77
2018-06-05T12:41:42.857Z,101309.38
2018-06-05T12:44:10.297Z,101326.00
2018-06-05T12:46:37.744Z,101312.13
2018-06-05T12:49:06.076Z,101313.16
2018-06-05T12:51:34.159Z,101317.88
2018-06-05T12:54:01.558Z,101317.86
2018-06-05T12:56:29.292Z,101319.52
2018-06-05T12:59:01.691Z,101323.59
2018-06-05T13:01:29.165Z,101320.25
2018-06-05T13:03:56.578Z,101324.81
2018-06-05T13:06:24.089Z,101323.66
2018-06-05T13:08:51.485Z,101328.07
2018-06-05T13:11:18.979Z,101327.11
2018-06-05T13:13:46.421Z,101344.68
2018-06-05T13:16:13.923Z,101341.89
2018-06-05T13:18:41.320Z,101345.54
2018-06-05T13:21:08.767Z,101351.19
2018-06-05T13:23:36.220Z,101351.14
2018-06-05T13:26:03.641Z,101362.17
2018-06-05T13:28:31.112Z,101365.47
2018-06-05T13:30:58.557Z,101352.59
2018-06-05T13:33:26.032Z,101371.55
2018-06-05T13:35:53.466Z,101372.29
2018-06-05T13:38:21.603Z,101376.17
2018-06-05T13:40:49.043Z,101379.30
2018-06-05T13:43:16.524Z,101377.25
2018-06-05T13:45:43.979Z,101378.05
2018-06-05T13:48:12.396Z,101378.03
2018-06-05T13:50:39.853Z,101389.06
2018-06-05T13:53:07.261Z,101381.52
2018-06-05T13:55:34.718Z,101386.41
2018-06-05T13:58:02.174Z,101382.37
2018-06-05T14:00:29.747Z,101380.36
2018-06-05T14:02:57.190Z,101381.56
2018-06-05T14:05:24.642Z,101391.11
2018-06-05T14:07:52.095Z,101395.73
2018-06-05T14:10:19.501Z,101395.69
2018-06-05T14:13:01.845Z,101397.94
2018-06-05T14:18:31.155Z,101411.16
2018-06-05T14:21:07.738Z,101412.34
2018-06-05T14:23:51.157Z,101410.64
2018-06-05T14:26:37.202Z,101414.76
2018-06-05T14:29:05.488Z,101406.78
2018-06-05T14:31:33.157Z,101418.30
2018-06-05T14:34:22.868Z,101413.15
2018-06-05T14:37:17.883Z,101421.81
2018-06-05T15:33:17.605Z,101453.00
2018-06-05T15:35:45.319Z,101457.32
2018-06-05T15:38:12.611Z,101457.75
2018-06-05T15:40:40.123Z,101449.17
2018-06-05T15:43:07.611Z,101457.03
2018-06-05T15:45:35.102Z,101453.30
2018-06-05T15:48:02.659Z,101451.33
2018-06-05T15:50:33.868Z,101458.42
2018-06-05T15:53:02.385Z,101464.16
2018-06-05T15:55:32.233Z,101458.94
2018-06-05T15:58:00.780Z,101462.41
2018-06-05T16:00:29.408Z,101470.87
2018-06-05T16:02:57.534Z,101482.25
2018-06-05T16:05:24.984Z,101481.06
2018-06-05T16:07:55.333Z,101473.41
2018-06-05T16:10:22.839Z,101471.05
2018-06-05T16:12:50.330Z,101482.14
2018-06-05T16:15:18.113Z,101479.70
2018-06-05T16:17:45.645Z,101477.28
2018-06-05T16:20:13.147Z,101486.31
2018-06-05T16:22:40.667Z,101483.35
2018-06-05T16:25:08.134Z,101487.27
2018-06-05T16:27:35.578Z,101490.77
2018-06-05T16:30:03.051Z,101487.70
2018-06-05T16:32:30.534Z,101485.43
2018-06-05T16:34:57.993Z,101492.16
2018-06-05T16:37:25.455Z,101493.28
2018-06-05T16:39:53.133Z,101496.58
2018-06-05T16:42:20.612Z,101499.08
2018-06-05T16:44:48.071Z,101482.51
2018-06-05T16:47:15.657Z,101493.91
2018-06-05T16:49:43.064Z,101498.90
2018-06-05T16:52:10.897Z,101504.19
2018-06-05T16:54:38.460Z,101505.72
2018-06-05T16:57:05.936Z,101506.34
2018-06-05T16:59:33.373Z,101525.66
2018-06-05T17:02:00.824Z,101520.36
2018-06-05T17:04:30.098Z,101529.20
2018-06-05T17:06:59.748Z,101525.57
2018-06-05T17:09:26.879Z,101535.09
2018-06-05T17:11:55.297Z,101536.14
2018-06-05T17:14:21.647Z,101543.86
2018-06-05T17:16:50.726Z,101544.36
2018-06-05T17:19:18.615Z,101551.38
2018-06-05T17:21:45.822Z,101544.66
2018-06-05T17:24:13.354Z,101541.70
2018-06-05T17:26:40.797Z,101549.73
2018-06-05T17:29:08.346Z,101551.20
2018-06-05T17:31:36.498Z,101551.63
2018-06-05T17:34:04.813Z,101561.41
2018-06-05T17:36:33.152Z,101556.69
2018-06-05T17:38:59.741Z,101552.78
2018-06-05T17:41:27.367Z,101565.55
2018-06-05T17:43:54.820Z,101567.77
2018-06-05T17:46:22.292Z,101563.16
2018-06-05T17:48:49.765Z,101562.61
2018-06-05T17:51:17.261Z,101570.92
2018-06-05T17:53:44.809Z,101578.50
2018-06-05T17:56:12.279Z,101572.84
2018-06-05T17:58:39.770Z,101579.55
2018-06-05T18:01:07.757Z,101566.36
2018-06-05T18:03:35.166Z,101571.70
2018-06-05T18:06:03.179Z,101559.72
2018-06-05T18:08:31.060Z,101563.97
2018-06-05T18:10:58.470Z,101563.45
2018-06-05T18:13:26.021Z,101560.97
2018-06-05T18:15:54.658Z,101568.39
2018-06-05T18:18:22.250Z,101572.47
2018-06-05T18:20:50.007Z,101575.08
2018-06-05T18:23:17.426Z,101585.97
2018-06-05T18:25:44.821Z,101578.42
2018-06-05T18:28:12.252Z,101588.03
2018-06-05T18:30:39.677Z,101587.16
2018-06-05T18:33:07.465Z,101593.02
2018-06-05T18:35:34.926Z,101604.30
2018-06-05T18:38:02.574Z,101607.90
2018-06-05T18:40:30.006Z,101611.03
2018-06-05T18:42:57.744Z,101616.57
2018-06-05T18:45:25.055Z,101620.55
2018-06-05T18:47:52.652Z,101620.98
